Latest Weather Observations for White Cliffs AWS

IDN60801

Issued at 9:32 pm EST Tuesday 28 April 2015 (issued every 30 minutes, with the page automatically refreshed every 10 minutes)

About weather observations | Map of weather stations | Latest weather observations for NSW | Other Formats
Station Details ID: 046129 Name: WHITE CLIFFS AWS Lat: -30.85 Lon: 143.07 Height: 158.0 m
Data from the previous 72 hours. | See also: Recent months at White Cliffs AWS
Date/Time
EST
Temp
°C
App
Temp
°C
Dew
Point
Rel
Hum
%
Delta-T
°C
Wind Press
QNH
hPa
Press
MSL
hPa
Rain
since 9 am
mm
Dir
 
Spd
km/h
Gust
km/h
Spd
kts
Gust
kts
28/09:30pm 13.4 7.9 2.0 46 5.0 SSE 20 22 11 12 1025.7 1025.2 0.0
28/09:00pm 13.6 8.4 2.2 46 5.0 SSE 19 24 10 13 1025.7 1025.2 0.0
28/08:30pm 13.9 9.0 2.2 45 5.2 SSE 17 20 9 11 1025.6 1025.1 0.0
28/08:00pm 14.4 9.5 2.0 43 5.5 SSE 17 19 9 10 1025.4 1024.9 0.0
28/07:30pm 15.0 10.1 1.9 41 5.8 SSE 17 20 9 11 1025.3 1024.8 0.0
28/07:00pm 15.8 10.4 1.5 38 6.3 SSE 19 22 10 12 1024.9 1024.4 0.0
28/06:30pm 16.3 11.3 1.2 36 6.7 SSE 17 22 9 12 1024.6 1024.1 0.0
28/06:00pm 16.9 11.3 1.4 35 6.9 SSE 20 30 11 16 1024.2 1023.7 0.0
28/05:30pm 17.7 11.7 1.2 33 7.4 SSE 22 28 12 15 1024.0 1023.5 0.0
28/05:00pm 18.3 12.7 1.3 32 7.6 SSE 20 28 11 15 1023.7 1023.2 0.0
28/04:30pm 18.7 13.1 1.2 31 7.9 SSE 20 28 11 15 1023.6 1023.1 0.0
28/04:00pm 18.8 13.2 1.3 31 7.9 SSE 20 32 11 17 1023.6 1023.1 0.0
28/03:30pm 18.6 13.2 1.2 31 7.8 SSE 19 26 10 14 1023.7 1023.2 0.0
28/03:00pm 18.9 13.0 1.4 31 7.9 SSE 22 33 12 18 1023.9 1023.4 0.0
28/02:30pm 18.3 12.9 1.3 32 7.7 SE 19 30 10 16 1024.0 1023.5 0.0
28/02:00pm 18.5 13.1 1.5 32 7.7 SSE 19 30 10 16 1024.5 1024.0 0.0
28/01:30pm 18.4 13.5 1.9 33 7.5 SE 17 32 9 17 1024.9 1024.4 0.0
28/01:00pm 17.7 12.3 1.2 33 7.3 S 19 28 10 15 1025.6 1025.1 0.0
28/12:30pm 17.6 13.0 1.6 34 7.2 SSE 15 24 8 13 1026.1 1025.6 0.0
28/12:00pm 17.0 11.6 1.4 35 6.9 SE 19 32 10 17 1026.6 1026.2 0.0
28/11:30am 17.1 11.8 1.9 36 6.9 SE 19 32 10 17 1027.0 1026.6 0.0
28/11:00am 16.5 11.1 2.2 38 6.4 SE 20 32 11 17 1027.2 1026.8 0.0
28/10:30am 16.1 10.6 1.8 38 6.4 SE 20 32 11 17 1027.4 1027.0 0.0
28/10:00am 15.9 10.1 2.3 40 6.1 SE 22 30 12 16 1027.5 1027.1 0.0
28/09:30am 15.3 10.1 2.5 42 5.7 SSE 19 28 10 15 1027.5 1027.1 0.0
28/09:00am 13.8 8.7 3.3 49 4.7 SSE 19 24 10 13 1027.5 1027.1 0.0
28/08:30am 12.5 8.3 3.7 55 3.9 SSE 15 19 8 10 1027.3 1026.9 0.0
28/08:00am 11.1 6.9 3.9 61 3.2 SSE 15 20 8 11 1027.0 1026.6 0.0
28/07:30am 8.3 4.5 3.8 73 2.0 S 13 15 7 8 1026.8 1026.4 0.0
28/07:00am 7.6 3.7 3.5 75 1.8 S 13 15 7 8 1026.5 1026.1 0.0
28/06:30am 7.5 3.2 3.4 75 1.8 S 15 17 8 9 1026.2 1025.8 0.0
28/06:00am 7.6 3.0 3.5 75 1.8 SSW 17 19 9 10 1026.1 1025.6 0.0
28/05:30am 7.5 3.2 3.2 74 1.8 SSW 15 17 8 9 1025.8 1025.3 0.0
28/05:00am 7.7 3.4 3.4 74 1.8 SSW 15 17 8 9 1025.6 1025.1 0.0
28/04:30am 8.0 3.7 3.3 72 2.0 S 15 17 8 9 1025.4 1024.9 0.0
28/04:00am 7.5 3.6 3.2 74 1.8 S 13 15 7 8 1025.4 1024.9 0.0
28/03:30am 7.5 3.6 3.2 74 1.8 SSW 13 15 7 8 1025.3 1024.8 0.0
28/03:00am 8.5 4.6 3.4 70 2.2 S 13 15 7 8 1025.3 1024.8 0.0
28/02:30am 9.0 4.7 3.4 68 2.4 S 15 17 8 9 1025.4 1024.9 0.0
28/02:00am 8.4 4.1 3.1 69 2.3 S 15 15 8 8 1025.5 1025.0 0.0
28/01:30am 8.6 4.2 2.8 67 2.5 S 15 17 8 9 1025.4 1024.9 0.0
28/01:00am 9.2 5.2 3.0 65 2.7 S 13 15 7 8 1025.4 1024.9 0.0
28/12:30am 9.8 5.4 2.9 62 3.0 S 15 17 8 9 1025.5 1025.0 0.0
28/12:00am 9.7 5.7 2.8 62 3.0 SSE 13 15 7 8 1025.7 1025.2 0.0
 
Date/Time
EST
Temp
°C
App
Temp
°C
Dew
Point
Rel
Hum
%
Delta-T
°C
Wind Press
QNH
hPa
Press
MSL
hPa
Rain
since 9 am
mm
Dir
 
Spd
km/h
Gust
km/h
Spd
kts
Gust
kts
27/11:30pm 10.2 6.2 2.8 60 3.2 S 13 15 7 8 1025.8 1025.3 0.0
27/11:00pm 10.7 6.3 2.8 58 3.4 S 15 17 8 9 1025.9 1025.4 0.0
27/10:30pm 10.8 6.8 2.6 57 3.6 S 13 15 7 8 1026.0 1025.5 0.0
27/10:00pm 11.0 7.4 2.8 57 3.6 S 11 15 6 8 1026.1 1025.6 0.0
27/09:30pm 11.4 7.8 2.9 56 3.7 SSE 11 11 6 6 1025.9 1025.4 0.0
27/09:00pm 11.4 8.1 2.7 55 3.8 S 9 11 5 6 1025.8 1025.3 0.0
27/08:30pm 11.9 8.2 2.6 53 4.1 S 11 13 6 7 1025.6 1025.1 0.0
27/08:00pm 12.5 8.8 2.4 50 4.4 S 11 13 6 7 1025.4 1024.9 0.0
27/07:30pm 13.7 9.7 2.6 47 4.9 S 13 15 7 8 1025.1 1024.6 0.0
27/07:00pm 14.2 9.8 2.8 46 5.1 S 15 19 8 10 1024.7 1024.2 0.0
27/06:30pm 14.9 10.1 2.4 43 5.6 S 17 22 9 12 1024.3 1023.8 0.0
27/06:00pm 15.5 10.6 2.3 41 5.9 S 17 24 9 13 1024.0 1023.5 0.0
27/05:30pm 16.3 10.9 2.3 39 6.3 S 20 26 11 14 1023.9 1023.4 0.0
27/05:00pm 17.0 11.3 2.6 38 6.6 S 22 26 12 14 1023.7 1023.2 0.0
27/04:30pm 17.1 11.2 1.9 36 6.9 S 22 32 12 17 1023.4 1022.9 0.0
27/04:00pm 17.2 11.9 2.0 36 6.9 S 19 30 10 16 1023.4 1022.9 0.0
27/03:30pm 17.7 12.2 2.1 35 7.1 SSW 20 32 11 17 1023.5 1023.0 0.0
27/03:00pm 17.3 12.0 1.7 35 7.0 S 19 26 10 14 1023.6 1023.1 0.0
27/02:30pm 17.2 12.3 2.0 36 6.9 SSW 17 39 9 21 1023.6 1023.1 0.0
27/02:00pm 16.5 11.9 1.8 37 6.6 S 15 26 8 14 1023.8 1023.3 0.0
27/01:30pm 16.5 11.6 1.8 37 6.6 SSW 17 30 9 16 1024.2 1023.7 0.0
27/01:00pm 16.1 11.2 2.2 39 6.2 S 17 26 9 14 1024.5 1024.0 0.0
27/12:30pm 15.5 10.2 2.0 40 6.0 S 19 28 10 15 1025.1 1024.6 0.0
27/12:00pm 15.3 9.8 1.8 40 6.0 S 20 30 11 16 1025.5 1025.0 0.0
27/11:30am 15.3 9.5 2.1 41 5.9 SSE 22 32 12 17 1025.7 1025.2 0.0
27/11:00am 15.2 9.1 2.7 43 5.6 S 24 35 13 19 1025.9 1025.4 0.0
27/10:30am 14.6 8.8 2.5 44 5.4 SSE 22 32 12 17 1026.0 1025.5 0.0
27/10:00am 14.1 7.7 3.3 48 4.9 S 26 33 14 18 1025.9 1025.4 0.0
27/09:30am 14.0 7.9 2.9 47 5.0 SSE 24 33 13 18 1025.8 1025.3 0.0
27/09:00am 12.8 8.3 4.3 56 3.9 S 17 20 9 11 1025.7 1025.2 0.0
27/08:30am 11.5 7.9 4.9 64 3.0 S 13 17 7 9 1025.4 1024.9 0.0
27/08:00am 10.3 7.5 5.1 70 2.4 S 9 11 5 6 1025.2 1024.7 0.0
27/07:30am 8.0 5.1 4.6 79 1.5 S 9 9 5 5 1024.7 1024.2 0.0
27/07:00am 7.0 3.6 4.1 82 1.3 SSW 11 11 6 6 1024.3 1023.8 0.0
27/06:30am 7.2 3.8 4.2 81 1.3 SSW 11 11 6 6 1024.1 1023.6 0.0
27/06:00am 7.2 4.2 4.2 81 1.3 SSW 9 11 5 6 1023.9 1023.4 0.0
27/05:30am 7.1 4.1 4.1 81 1.3 SSW 9 11 5 6 1023.7 1023.2 0.0
27/05:00am 7.7 4.7 4.3 79 1.5 S 9 9 5 5 1023.5 1023.0 0.0
27/04:30am 8.3 5.4 4.5 77 1.7 S 9 11 5 6 1023.3 1022.8 0.0
27/04:00am 8.6 5.3 4.8 77 1.7 S 11 13 6 7 1023.0 1022.6 0.0
27/03:30am 8.9 5.3 5.1 77 1.7 S 13 15 7 8 1022.8 1022.4 0.0
27/03:00am 9.6 6.0 5.2 74 2.0 S 13 13 7 7 1023.0 1022.6 0.0
27/02:30am 10.1 6.2 5.3 72 2.2 S 15 17 8 9 1023.3 1022.8 0.0
27/02:00am 10.5 6.6 5.5 71 2.3 SSE 15 17 8 9 1023.4 1022.9 0.0
27/01:30am 9.9 6.4 5.5 74 2.0 S 13 15 7 8 1023.5 1023.0 0.0
27/01:00am 10.0 6.5 5.4 73 2.1 S 13 15 7 8 1023.5 1023.0 0.0
27/12:30am 9.5 6.7 5.3 75 1.9 SW 9 11 5 6 1023.7 1023.2 0.0
27/12:00am 10.5 7.0 5.3 70 2.4 S 13 15 7 8 1023.7 1023.2 0.0
 
Date/Time
EST
Temp
°C
App
Temp
°C
Dew
Point
Rel
Hum
%
Delta-T
°C
Wind Press
QNH
hPa
Press
MSL
hPa
Rain
since 9 am
mm
Dir
 
Spd
km/h
Gust
km/h
Spd
kts
Gust
kts
26/11:30pm 10.4 7.2 5.2 70 2.4 SSW 11 11 6 6 1023.7 1023.2 0.0
26/11:00pm 10.5 7.7 5.3 70 2.4 SSW 9 11 5 6 1023.8 1023.3 0.0
26/10:30pm 11.2 8.0 5.1 66 2.8 SSW 11 13 6 7 1023.9 1023.4 0.0
26/10:00pm 11.7 8.2 5.3 65 3.0 S 13 15 7 8 1023.8 1023.3 0.0
26/09:30pm 12.1 8.2 5.3 63 3.2 SSW 15 17 8 9 1023.7 1023.2 0.0
26/09:00pm 12.5 8.9 5.2 61 3.4 S 13 15 7 8 1023.5 1023.0 0.0
26/08:30pm 13.0 9.9 5.4 60 3.6 S 11 13 6 7 1023.2 1022.7 0.0
26/08:00pm 13.7 10.2 5.3 57 3.9 S 13 15 7 8 1022.8 1022.4 0.0
26/07:30pm 14.1 10.6 5.5 56 4.1 S 13 15 7 8 1022.5 1022.1 0.0
26/07:00pm 14.8 10.9 5.3 53 4.5 S 15 19 8 10 1022.1 1021.7 0.0
26/06:30pm 15.4 11.5 5.3 51 4.8 SSW 15 17 8 9 1021.9 1021.5 0.0
26/06:00pm 16.1 11.8 5.4 49 5.1 SSW 17 22 9 12 1021.6 1021.2 0.0
26/05:30pm 16.8 12.1 5.1 46 5.6 SSW 19 24 10 13 1021.2 1020.8 0.0
26/05:00pm 17.2 12.4 5.5 46 5.7 SSW 20 30 11 16 1021.1 1020.7 0.0
26/04:30pm 17.6 12.0 5.2 44 6.0 SSW 24 32 13 17 1020.8 1020.4 0.0
26/04:00pm 17.9 12.8 5.8 45 5.9 SSW 22 30 12 16 1020.7 1020.3 0.0
26/03:30pm 17.8 12.8 6.3 47 5.7 SW 22 30 12 16 1020.7 1020.3 0.0
26/03:00pm 17.5 12.6 6.7 49 5.4 SSW 22 33 12 18 1020.7 1020.3 0.0
26/02:30pm 17.6 12.3 6.8 49 5.4 SW 24 35 13 19 1020.6 1020.1 0.0
26/02:00pm 16.9 11.1 6.4 50 5.2 SW 26 33 14 18 1020.8 1020.4 0.0
26/01:30pm 17.1 11.8 6.9 51 5.1 SSW 24 37 13 20 1020.8 1020.4 0.0
26/01:00pm 16.8 11.6 7.4 54 4.7 SSW 24 35 13 19 1020.9 1020.5 0.0
26/12:30pm 15.4 10.2 7.2 58 4.1 SSW 24 37 13 20 1021.3 1020.9 0.0
26/12:00pm 14.8 9.4 8.1 64 3.4 SSW 26 35 14 19 1021.6 1021.2 0.0
26/11:30am 14.7 9.7 8.0 64 3.4 SSW 24 32 13 17 1021.8 1021.4 0.0
26/11:00am 14.4 9.0 7.9 65 3.2 SSW 26 32 14 17 1022.0 1021.6 0.0
26/10:30am 14.6 9.6 8.1 65 3.3 SSW 24 32 13 17 1021.9 1021.5 0.0
26/10:00am 14.6 8.8 8.1 65 3.3 S 28 35 15 19 1021.6 1021.2 0.0
26/09:30am 14.3 7.8 8.0 66 3.2 S 32 39 17 21 1021.5 1021.1 0.0
26/09:00am 13.5 7.5 8.6 72 2.5 SSW 30 39 16 21 1021.4 1021.0 0.0
26/08:30am 13.0 8.3 9.1 77 2.0 SSW 24 32 13 17 1021.2 1020.8 0.0
26/08:00am 12.8 8.1 9.3 79 1.8 SSW 24 32 13 17 1020.6 1020.1 0.0
26/07:30am 12.4 8.1 9.2 81 1.6 SSW 22 30 12 16 1020.0 1019.5 0.0
26/07:00am 11.9 7.3 9.6 86 1.2 SSW 24 30 13 16 1019.5 1019.0 0.0
26/06:30am 10.6 6.8 9.0 90 0.8 SW 19 24 10 13 1019.2 1018.7 0.0
26/06:00am 9.5 6.3 8.3 92 0.6 SW 15 17 8 9 1018.9 1018.4 0.0
26/05:30am 9.6 6.7 8.2 91 0.7 SW 13 17 7 9 1018.5 1018.0 0.0
26/05:00am 9.7 6.8 8.0 89 0.8 SW 13 17 7 9 1018.0 1017.5 0.0
26/04:30am 9.4 7.0 7.0 85 1.1 WSW 9 13 5 7 1017.9 1017.4 0.0
26/04:00am 9.8 6.6 6.9 82 1.4 SW 13 17 7 9 1017.6 1017.1 0.0
26/03:30am 9.5 5.7 6.0 79 1.6 WSW 15 17 8 9 1017.6 1017.1 0.0
26/03:00am 8.7 5.0 4.7 76 1.8 W 13 13 7 7 1017.5 1017.0 0.0
26/02:30am 9.7 6.1 4.9 72 2.2 WSW 13 15 7 8 1017.5 1017.0 0.0
26/02:00am 10.1 6.6 5.3 72 2.2 WSW 13 15 7 8 1017.2 1016.7 0.0
26/01:30am 8.5 4.9 3.1 69 2.3 W 11 13 6 7 1017.3 1016.8 0.0
26/01:00am 8.9 5.3 3.1 67 2.5 NW 11 13 6 7 1017.3 1016.8 0.0
26/12:30am 9.1 5.5 3.1 66 2.6 NNW 11 15 6 8 1017.1 1016.6 0.0
26/12:00am 9.0 5.0 3.0 66 2.6 NW 13 13 7 7 1016.9 1016.4 0.0
 
Date/Time
EST
Temp
°C
App
Temp
°C
Dew
Point
Rel
Hum
%
Delta-T
°C
Wind Press
QNH
hPa
Press
MSL
hPa
Rain
since 9 am
mm
Dir
 
Spd
km/h
Gust
km/h
Spd
kts
Gust
kts
25/11:30pm 9.0 5.1 3.2 67 2.5 NW 13 15 7 8 1016.8 1016.3 0.0
25/11:00pm 9.5 5.6 3.3 65 2.7 WNW 13 15 7 8 1016.9 1016.4 0.0
25/10:30pm 9.8 5.6 3.8 66 2.7 W 15 17 8 9 1016.8 1016.3 0.0
25/10:00pm 10.0 6.6 4.0 66 2.7 W 11 13 6 7 1017.0 1016.5 0.0

Other Formats:

Comma delimited format used in spreadsheet applications
http://www.bom.gov.au/fwo/IDN60801/IDN60801.95699.axf

JavaScript Object Notation format (JSON) in row-major order
http://www.bom.gov.au/fwo/IDN60801/IDN60801.95699.json